Pine Lake, Washington
Current Conditions -  °F | °C
As of 1:41 AM on Thursday 18 Dec 2014 (Local Time) from KRNT Reporting Station
Light Rain Light Rain  
Wind Chill: 45°   Ceiling: 800
Heat Index: 45°   Visibility: 2.5mi
Dew Point: 44°   Wind: 3mph
Humidity: 97%   Direction: 120°ESE
Pressure: 29.94"   Gusts: NA
Location:  47.4953°N, 121.984°W
Report Text: KRNT 180941Z AUTO 12003KT 2 1/2SM -RA BR BKN008 OVC019 07/07 A2994 RMK AO2 P0002 T00720067
Loading
Personal Weather Stations






























Interactive Weather Map New forecast layout! Learn more

10-Day Weather Forecast

Advertisements
Track Severe Weather on mobile